Time;durP1;ratioP1;P1;durP2;ratioP2;P2;SDS_P1;SDS_P2;PMS_P1;PMS_P2;Temp;Humidity;BMP_temperature;BMP_pressure;BME280_temperature;BME280_humidity;BME280_pressure;Samples;Min_cycle;Max_cycle;Signal;HPM_P1;HPM_P2
2023/02/20 00:00:25;;;;;;;39.50;23.15;;;-4.30;99.10;;;;;;5014833;28;20022;-82
2023/02/20 00:02:51;;;;;;;35.33;21.00;;;-4.30;99.30;;;;;;5032995;28;20685;-83
2023/02/20 00:05:17;;;;;;;48.78;25.00;;;-4.30;99.10;;;;;;5015041;28;20021;-81
2023/02/20 00:07:43;;;;;;;37.17;20.10;;;-4.30;99.10;;;;;;5033495;28;20025;-81
2023/02/20 00:10:10;;;;;;;36.60;21.35;;;-4.30;99.00;;;;;;5015090;28;20030;-83
2023/02/20 00:12:36;;;;;;;31.73;18.63;;;-4.30;98.90;;;;;;5032996;28;20120;-83
2023/02/20 00:15:03;;;;;;;29.75;17.45;;;-4.40;98.80;;;;;;5054596;28;20048;-80
2023/02/20 00:17:29;;;;;;;28.83;18.05;;;-4.40;98.80;;;;;;5047308;28;20025;-81
2023/02/20 00:19:55;;;;;;;36.25;21.50;;;-4.50;98.70;;;;;;5077703;28;20501;-82
2023/02/20 00:22:22;;;;;;;40.92;21.27;;;-4.60;98.70;;;;;;5055483;28;20029;-81
2023/02/20 00:24:48;;;;;;;40.25;24.65;;;-4.70;98.70;;;;;;5055252;28;20017;-81
2023/02/20 00:27:14;;;;;;;37.63;20.73;;;-4.80;98.80;;;;;;5051469;28;20446;-82
2023/02/20 00:29:40;;;;;;;38.80;20.17;;;-4.80;98.90;;;;;;5049986;28;20029;-81
2023/02/20 00:32:06;;;;;;;39.10;21.40;;;-4.80;99.00;;;;;;5052721;28;20051;-81
2023/02/20 00:34:32;;;;;;;33.80;18.08;;;-4.80;99.20;;;;;;5081596;28;20029;-82
2023/02/20 00:36:58;;;;;;;39.97;21.23;;;-4.70;99.20;;;;;;5053899;28;20020;-80
2023/02/20 00:39:24;;;;;;;35.75;20.27;;;-4.70;99.20;;;;;;5052663;28;20017;-82
2023/02/20 00:41:49;;;;;;;40.28;21.27;;;-4.70;99.20;;;;;;5047370;28;20059;-80
2023/02/20 00:44:16;;;;;;;40.63;22.48;;;-4.70;99.30;;;;;;5057930;28;20050;-80
2023/02/20 00:46:41;;;;;;;39.25;20.90;;;-4.60;99.30;;;;;;5063253;28;20496;-80
2023/02/20 00:49:07;;;;;;;34.42;19.92;;;-4.60;99.30;;;;;;5058296;28;20061;-81
2023/02/20 00:51:35;;;;;;;33.28;20.52;;;-4.60;99.30;;;;;;5058636;28;20072;-80
2023/02/20 00:54:01;;;;;;;34.25;20.35;;;-4.50;99.30;;;;;;5057353;28;20096;-83
2023/02/20 00:56:27;;;;;;;39.25;21.35;;;-4.50;99.20;;;;;;5041575;28;20032;-80
2023/02/20 00:58:53;;;;;;;38.08;20.42;;;-4.50;99.10;;;;;;5056147;28;20017;-82
2023/02/20 01:01:19;;;;;;;32.65;20.25;;;-4.50;99.20;;;;;;5055784;28;20017;-82
2023/02/20 01:03:45;;;;;;;37.28;20.02;;;-4.50;99.00;;;;;;5056354;28;20028;-81
2023/02/20 01:06:11;;;;;;;32.42;20.75;;;-4.50;99.00;;;;;;5057439;28;20025;-80
2023/02/20 01:08:36;;;;;;;42.88;20.95;;;-4.50;99.10;;;;;;5053516;28;20037;-80
2023/02/20 01:11:02;;;;;;;39.28;22.98;;;-4.50;99.00;;;;;;5056653;28;20024;-80
2023/02/20 01:13:28;;;;;;;40.08;23.92;;;-4.50;98.70;;;;;;5055395;28;20057;-80
2023/02/20 01:15:54;;;;;;;43.40;28.85;;;-4.50;98.50;;;;;;5047817;28;20143;-81
2023/02/20 01:18:20;;;;;;;42.05;25.42;;;-4.60;98.40;;;;;;5055780;28;20025;-80
2023/02/20 01:20:46;;;;;;;42.95;25.92;;;-4.60;98.30;;;;;;5055929;28;20490;-81
2023/02/20 01:23:12;;;;;;;43.28;26.17;;;-4.70;98.40;;;;;;5053983;28;20028;-79
2023/02/20 01:25:38;;;;;;;38.67;25.17;;;-4.70;98.40;;;;;;5048929;28;20025;-79
2023/02/20 01:28:04;;;;;;;35.97;21.45;;;-4.80;98.40;;;;;;5073222;28;20029;-79
2023/02/20 01:30:30;;;;;;;37.28;20.10;;;-4.70;98.40;;;;;;5060844;28;20020;-80
2023/02/20 01:32:55;;;;;;;46.65;25.45;;;-4.70;98.60;;;;;;5055326;28;20024;-80
2023/02/20 01:35:21;;;;;;;42.45;25.40;;;-4.70;98.50;;;;;;5053722;28;20108;-81
2023/02/20 01:37:47;;;;;;;40.35;22.83;;;-4.70;98.40;;;;;;5055162;28;20025;-80
2023/02/20 01:40:23;;;;;;;42.83;24.58;;;-4.70;98.40;;;;;;5053731;28;20025;-80
2023/02/20 01:42:49;;;;;;;36.70;20.67;;;-4.80;98.30;;;;;;5039507;28;20377;-81
2023/02/20 01:45:20;;;;;;;41.83;22.70;;;-4.70;98.50;;;;;;5057648;28;20381;-81
2023/02/20 01:47:47;;;;;;;35.97;20.48;;;-4.70;98.50;;;;;;5056028;28;20099;-82
2023/02/20 01:50:15;;;;;;;31.23;20.25;;;-4.70;98.60;;;;;;5057500;28;20029;-80
2023/02/20 01:52:42;;;;;;;;;;;-4.60;98.60;;;;;;5054059;28;20024;-81
2023/02/20 01:55:27;;;;;;;33.08;19.52;;;-4.60;98.40;;;;;;5057285;28;20001;-81
2023/02/20 01:58:04;;;;;;;33.40;21.02;;;-4.60;98.10;;;;;;5060182;28;20066;-81
2023/02/20 02:00:32;;;;;;;41.67;24.25;;;-4.70;98.10;;;;;;5059277;28;20053;-81
2023/02/20 02:03:04;;;;;;;36.95;20.45;;;-4.70;98.10;;;;;;5060219;28;20029;-82
2023/02/20 02:05:32;;;;;;;37.03;22.05;;;-4.70;98.00;;;;;;5056227;28;20032;-81
2023/02/20 02:08:00;;;;;;;35.25;21.80;;;-4.70;98.20;;;;;;5053740;28;20033;-80
2023/02/20 02:10:29;;;;;;;;;;;-4.70;98.10;;;;;;5055791;28;20029;-81
2023/02/20 02:12:55;;;;;;;32.20;19.75;;;-4.80;98.10;;;;;;5055353;28;19963;-80
2023/02/20 02:15:23;;;;;;;38.63;21.63;;;-4.80;98.00;;;;;;5057705;28;20033;-81
2023/02/20 02:18:15;;;;;;;33.65;18.52;;;-4.90;98.00;;;;;;5057573;28;20021;-81
2023/02/20 02:21:16;;;;;;;34.60;20.17;;;-4.90;98.20;;;;;;5053391;28;20053;-79
2023/02/20 02:24:00;;;;;;;29.38;17.95;;;-4.90;98.40;;;;;;5054077;28;20191;-80
2023/02/20 02:26:53;;;;;;;30.25;18.23;;;-4.90;98.20;;;;;;5062998;28;20037;-80
2023/02/20 02:30:02;;;;;;;39.85;18.83;;;-4.90;98.50;;;;;;4986344;28;20046;-80
2023/02/20 02:33:02;;;;;;;33.03;18.77;;;-4.80;98.40;;;;;;4999753;28;20029;-80
2023/02/20 02:36:12;;;;;;;32.33;18.92;;;-4.70;98.70;;;;;;4997123;28;20026;-80
2023/02/20 02:39:05;;;;;;;34.20;17.35;;;-4.70;98.50;;;;;;4995588;28;20061;-80
2023/02/20 02:41:50;;;;;;;32.15;17.33;;;-4.70;98.60;;;;;;5008609;28;20602;-80
2023/02/20 02:44:45;;;;;;;28.75;16.95;;;-4.70;98.50;;;;;;4981990;28;20420;-81
2023/02/20 02:47:25;;;;;;;32.28;19.27;;;-4.70;98.60;;;;;;4992103;28;20049;-79
2023/02/20 02:50:14;;;;;;;31.88;17.42;;;-4.60;98.70;;;;;;4992586;28;20189;-81
2023/02/20 02:52:49;;;;;;;34.53;18.27;;;-4.60;98.70;;;;;;4986675;28;20503;-80
2023/02/20 02:55:23;;;;;;;30.85;19.00;;;-4.50;98.70;;;;;;4993256;28;20488;-79
2023/02/20 02:57:49;;;;;;;35.17;19.10;;;-4.50;98.30;;;;;;4996642;28;20025;-79
2023/02/20 03:00:21;;;;;;;29.35;16.95;;;-4.50;98.10;;;;;;4993677;28;20520;-80
2023/02/20 03:02:57;;;;;;;32.08;17.35;;;-4.50;98.10;;;;;;5005954;28;20057;-81
2023/02/20 03:05:38;;;;;;;34.65;19.42;;;-4.50;97.90;;;;;;5019875;28;20030;-81
2023/02/20 03:08:13;;;;;;;32.58;17.85;;;-4.50;98.10;;;;;;5059152;28;20049;-80
2023/02/20 03:10:41;;;;;;;33.97;18.40;;;-4.50;98.40;;;;;;5060389;28;20025;-81
2023/02/20 03:13:11;;;;;;;37.75;17.25;;;-4.50;98.10;;;;;;5034497;28;20041;-81
2023/02/20 03:15:51;;;;;;;36.58;21.45;;;-4.60;98.00;;;;;;5039093;28;20091;-81
2023/02/20 03:18:37;;;;;;;32.28;18.48;;;-4.60;98.20;;;;;;5020777;28;20080;-82
2023/02/20 03:21:22;;;;;;;32.42;18.55;;;-4.70;98.00;;;;;;5031320;28;20028;-82
2023/02/20 03:23:56;;;;;;;36.40;19.17;;;-4.70;98.20;;;;;;5036265;28;20045;-82
2023/02/20 03:26:30;;;;;;;33.90;19.40;;;-4.70;98.00;;;;;;5034073;28;20048;-82
2023/02/20 03:29:12;;;;;;;38.78;21.45;;;-4.70;97.90;;;;;;5038102;28;20033;-84
2023/02/20 03:31:49;;;;;;;36.78;16.77;;;-4.70;98.10;;;;;;5015979;28;20514;-81
2023/02/20 03:45:46;;;;;;;31.95;18.13;;;-4.80;98.40;;;;;;5033586;28;20104;-81
2023/02/20 03:48:18;;;;;;;36.28;21.23;;;-4.80;98.30;;;;;;5034252;28;20112;-81
2023/02/20 03:50:44;;;;;;;33.95;18.73;;;-4.80;98.10;;;;;;5036854;28;20028;-82
2023/02/20 03:53:10;;;;;;;34.75;17.95;;;-4.90;98.10;;;;;;5016810;28;20128;-82
2023/02/20 03:55:36;;;;;;;35.22;18.73;;;-4.90;98.30;;;;;;5018390;28;20034;-82
2023/02/20 03:58:07;;;;;;;37.85;20.40;;;-4.80;98.40;;;;;;5045286;28;20108;-81
2023/02/20 04:00:39;;;;;;;31.85;18.65;;;-4.80;98.40;;;;;;5034191;28;20447;-81
2023/02/20 04:03:11;;;;;;;33.55;17.70;;;-4.80;98.30;;;;;;5015684;28;20048;-82
2023/02/20 04:05:39;;;;;;;34.38;18.23;;;-4.80;98.50;;;;;;5032935;28;20013;-83
2023/02/20 04:08:05;;;;;;;33.65;19.92;;;-4.90;98.50;;;;;;5029066;28;20026;-82
2023/02/20 04:10:39;;;;;;;39.38;20.75;;;-4.90;98.60;;;;;;5027080;28;20032;-82
2023/02/20 04:13:08;;;;;;;34.75;18.42;;;-4.80;98.50;;;;;;5041547;28;20096;-81
2023/02/20 04:15:34;;;;;;;36.80;19.83;;;-4.80;98.30;;;;;;5051915;28;20102;-81
2023/02/20 04:18:13;;;;;;;33.33;21.88;;;-4.90;98.40;;;;;;5055913;28;20552;-82
2023/02/20 04:20:39;;;;;;;30.55;18.27;;;-4.90;98.60;;;;;;5056766;28;20488;-81
2023/02/20 04:23:19;;;;;;;29.40;17.53;;;-4.90;98.50;;;;;;5056769;28;20025;-80
2023/02/20 04:26:15;;;;;;;30.98;16.42;;;-4.90;98.60;;;;;;5043965;28;20363;-81
2023/02/20 04:28:41;;;;;;;28.92;15.75;;;-4.90;98.70;;;;;;5054663;28;20048;-80
2023/02/20 04:31:08;;;;;;;29.92;14.55;;;-4.90;98.40;;;;;;5056355;28;20021;-80
2023/02/20 04:33:34;;;;;;;31.02;18.05;;;-4.90;98.20;;;;;;5036677;28;20029;-81
2023/02/20 04:36:01;;;;;;;32.03;17.02;;;-4.90;98.30;;;;;;5057163;28;20548;-82
2023/02/20 04:38:26;;;;;;;33.55;20.00;;;-4.90;98.40;;;;;;5057248;28;20090;-82
2023/02/20 04:40:52;;;;;;;29.20;16.15;;;-4.90;98.40;;;;;;5058834;28;20041;-82
2023/02/20 04:43:18;;;;;;;30.83;17.23;;;-4.90;98.40;;;;;;5058396;28;20021;-81
2023/02/20 04:45:44;;;;;;;27.45;17.05;;;-4.80;98.60;;;;;;5038631;28;20028;-81
2023/02/20 04:48:10;;;;;;;33.05;16.83;;;-4.80;98.60;;;;;;5056702;28;20474;-81
2023/02/20 04:50:36;;;;;;;31.67;18.10;;;-4.80;98.80;;;;;;5042191;28;20038;-82
2023/02/20 04:53:02;;;;;;;31.17;17.52;;;-4.80;98.30;;;;;;5056425;28;20055;-82
2023/02/20 04:55:28;;;;;;;30.55;17.52;;;-4.80;98.20;;;;;;5042193;28;20022;-81
2023/02/20 04:57:56;;;;;;;26.60;17.35;;;-4.70;98.30;;;;;;5038325;28;20025;-82
2023/02/20 05:00:24;;;;;;;25.77;15.27;;;-4.70;98.20;;;;;;5056885;28;20501;-82
2023/02/20 05:02:51;;;;;;;26.95;15.77;;;-4.60;97.50;;;;;;5038783;28;20032;-80
2023/02/20 05:05:21;;;;;;;29.67;17.90;;;-4.70;97.50;;;;;;5056636;28;20093;-83
2023/02/20 05:07:47;;;;;;;33.97;19.00;;;-4.70;97.60;;;;;;5055537;28;20090;-82
2023/02/20 05:10:16;;;;;;;40.77;19.13;;;-4.70;97.30;;;;;;5057741;28;20457;-82
2023/02/20 05:12:42;;;;;;;33.40;20.58;;;-4.80;97.40;;;;;;5071498;28;20106;-82
2023/02/20 05:15:08;;;;;;;28.77;15.85;;;-4.90;97.60;;;;;;5066364;28;20017;-80
2023/02/20 05:17:34;;;;;;;28.50;16.45;;;-4.90;97.30;;;;;;5056914;28;20012;-82
2023/02/20 05:20:00;;;;;;;24.63;15.18;;;-4.90;97.20;;;;;;5056931;28;20092;-81
2023/02/20 05:22:26;;;;;;;23.00;14.07;;;-4.90;97.10;;;;;;5039584;28;20056;-80
2023/02/20 05:24:52;;;;;;;26.33;14.70;;;-4.90;97.40;;;;;;5041547;28;20017;-81
2023/02/20 05:27:20;;;;;;;24.25;15.10;;;-4.90;97.70;;;;;;5058521;28;20073;-79
2023/02/20 05:29:48;;;;;;;30.13;16.10;;;-4.80;98.10;;;;;;5041327;28;20103;-81
2023/02/20 05:32:15;;;;;;;30.13;15.85;;;-4.80;98.00;;;;;;5041186;28;20028;-81
2023/02/20 05:34:42;;;;;;;25.92;16.70;;;-4.70;98.00;;;;;;5061937;28;20125;-80
2023/02/20 05:37:10;;;;;;;25.67;15.85;;;-4.70;97.90;;;;;;5058712;28;20055;-80
2023/02/20 05:39:35;;;;;;;28.67;15.63;;;-4.60;97.70;;;;;;5041140;28;20028;-81
2023/02/20 05:42:01;;;;;;;28.10;17.90;;;-4.60;97.80;;;;;;5059768;28;20032;-82
2023/02/20 05:44:27;;;;;;;32.80;18.08;;;-4.50;98.00;;;;;;5057285;28;20032;-80
2023/02/20 05:46:54;;;;;;;27.73;17.13;;;-4.50;97.80;;;;;;5047493;28;20033;-82
2023/02/20 05:49:21;;;;;;;21.65;13.35;;;-4.50;97.70;;;;;;5036155;28;20040;-82
2023/02/20 05:51:49;;;;;;;30.75;18.17;;;-4.40;98.00;;;;;;5055612;28;20036;-81
2023/02/20 05:54:15;;;;;;;30.63;16.67;;;-4.40;98.00;;;;;;5057209;28;20032;-81
2023/02/20 05:56:45;;;;;;;29.03;19.20;;;-4.40;97.60;;;;;;5056789;28;20048;-81
2023/02/20 05:59:11;;;;;;;39.22;19.75;;;-4.40;97.60;;;;;;5043063;28;20020;-81
2023/02/20 06:01:38;;;;;;;32.65;19.70;;;-4.40;97.30;;;;;;5059892;28;20036;-82
2023/02/20 06:04:04;;;;;;;30.83;20.08;;;-4.40;96.70;;;;;;5040388;28;20100;-80
2023/02/20 06:06:38;;;;;;;29.02;14.13;;;-4.40;96.80;;;;;;5075341;28;20013;-79
2023/02/20 06:09:06;;;;;;;35.17;17.48;;;-4.40;96.80;;;;;;5053771;28;20426;-81
2023/02/20 06:11:33;;;;;;;27.25;17.00;;;-4.40;96.90;;;;;;5067764;28;20028;-83
2023/02/20 06:13:59;;;;;;;31.80;18.17;;;-4.40;97.30;;;;;;5041544;28;20393;-81
2023/02/20 06:16:29;;;;;;;29.25;17.50;;;-4.40;97.50;;;;;;5057327;28;20397;-80
2023/02/20 06:18:55;;;;;;;31.75;17.90;;;-4.40;96.70;;;;;;5051581;28;20029;-81
2023/02/20 06:21:24;;;;;;;30.50;15.65;;;-4.40;96.60;;;;;;5057321;28;20108;-83
2023/02/20 06:23:51;;;;;;;25.05;16.40;;;-4.40;96.90;;;;;;5061113;28;20067;-81
2023/02/20 06:26:18;;;;;;;23.70;15.82;;;-4.40;97.40;;;;;;5059215;28;20021;-83
2023/02/20 06:28:46;;;;;;;26.00;15.52;;;-4.30;97.60;;;;;;5060034;28;20040;-80
2023/02/20 06:31:12;;;;;;;33.05;15.48;;;-4.30;97.60;;;;;;5058876;28;20044;-82
2023/02/20 06:33:38;;;;;;;29.40;17.40;;;-4.20;97.30;;;;;;5022988;28;20037;-82
2023/02/20 06:36:05;;;;;;;26.77;16.98;;;-4.20;97.00;;;;;;5040762;28;20116;-82
2023/02/20 06:38:31;;;;;;;28.55;13.45;;;-4.20;96.10;;;;;;5059049;28;20025;-82
2023/02/20 06:40:57;;;;;;;22.35;14.95;;;-4.20;96.80;;;;;;5029035;28;20076;-81
2023/02/20 06:43:22;;;;;;;23.25;14.02;;;-4.20;97.00;;;;;;5061362;28;20029;-82
2023/02/20 06:45:48;;;;;;;22.10;11.90;;;-4.20;96.70;;;;;;5048854;28;20496;-84
2023/02/20 06:48:14;;;;;;;25.35;13.90;;;-4.20;97.10;;;;;;5055670;28;20482;-84
2023/02/20 06:50:41;;;;;;;28.98;15.75;;;-4.20;97.50;;;;;;5044709;28;20572;-82
2023/02/20 06:53:07;;;;;;;24.10;15.70;;;-4.20;97.70;;;;;;5042244;28;20106;-82
2023/02/20 06:55:33;;;;;;;26.98;17.02;;;-4.20;97.00;;;;;;5044143;28;20526;-82
2023/02/20 06:58:00;;;;;;;21.15;13.23;;;-4.20;96.20;;;;;;5040200;28;20025;-81
2023/02/20 07:00:26;;;;;;;26.83;15.38;;;-4.20;96.60;;;;;;5041000;28;20037;-82
2023/02/20 07:02:52;;;;;;;26.63;14.82;;;-4.20;96.50;;;;;;5060496;28;20025;-82
2023/02/20 07:05:18;;;;;;;24.02;13.15;;;-4.10;95.60;;;;;;5056726;28;20049;-81
2023/02/20 07:07:44;;;;;;;27.75;16.45;;;-4.10;95.80;;;;;;5051917;28;20122;-82
2023/02/20 07:10:10;;;;;;;24.27;14.80;;;-4.00;96.10;;;;;;5058567;28;20032;-82
2023/02/20 07:12:37;;;;;;;22.80;12.57;;;-4.00;96.40;;;;;;5057807;28;20049;-82
2023/02/20 07:15:05;;;;;;;26.05;13.88;;;-4.00;95.80;;;;;;5050525;28;20013;-79
2023/02/20 07:17:31;;;;;;;28.33;15.02;;;-4.00;96.40;;;;;;5037766;28;20650;-81
2023/02/20 07:19:58;;;;;;;31.52;19.42;;;-4.00;96.30;;;;;;5043580;28;20101;-82
2023/02/20 07:22:24;;;;;;;28.42;19.45;;;-4.00;95.60;;;;;;5057766;28;20028;-82
2023/02/20 07:24:51;;;;;;;31.85;18.05;;;-4.00;95.50;;;;;;5058453;28;20028;-80
2023/02/20 07:27:17;;;;;;;31.63;16.58;;;-4.00;95.50;;;;;;5039495;28;20044;-83
2023/02/20 07:29:48;;;;;;;29.83;16.88;;;-4.00;95.50;;;;;;5055133;28;20067;-80
2023/02/20 07:32:19;;;;;;;30.90;17.77;;;-4.00;95.60;;;;;;5057137;28;20163;-81
2023/02/20 07:34:45;;;;;;;33.90;17.20;;;-4.00;95.70;;;;;;5058499;28;20413;-82
2023/02/20 07:37:15;;;;;;;25.70;16.02;;;-3.90;96.00;;;;;;5041300;28;20024;-83
2023/02/20 07:39:41;;;;;;;25.50;14.35;;;-3.80;95.90;;;;;;5047971;28;20029;-82
2023/02/20 07:42:07;;;;;;;29.83;18.63;;;-3.70;95.80;;;;;;5056803;28;20025;-81
2023/02/20 07:44:33;;;;;;;26.05;16.85;;;-3.70;95.80;;;;;;5057521;28;20025;-82
2023/02/20 07:46:59;;;;;;;28.48;16.13;;;-3.60;95.40;;;;;;5055099;28;20021;-80
2023/02/20 07:49:24;;;;;;;23.55;13.43;;;-3.60;95.30;;;;;;5037730;28;20124;-83
2023/02/20 07:51:50;;;;;;;30.05;15.43;;;-3.60;95.80;;;;;;5057922;28;20099;-81
2023/02/20 07:54:16;;;;;;;30.92;19.48;;;-3.50;95.50;;;;;;5055699;28;20029;-83
2023/02/20 07:56:42;;;;;;;29.13;17.02;;;-3.60;95.00;;;;;;5051239;28;20104;-79
2023/02/20 07:59:09;;;;;;;29.63;16.83;;;-3.50;94.80;;;;;;5059238;28;21527;-81
2023/02/20 08:01:35;;;;;;;29.02;16.95;;;-3.50;94.80;;;;;;5059636;28;20386;-80
2023/02/20 08:04:01;;;;;;;31.15;17.17;;;-3.50;94.90;;;;;;5055714;28;20021;-79
2023/02/20 08:06:27;;;;;;;26.00;16.30;;;-3.50;95.00;;;;;;5057455;28;20047;-79
2023/02/20 08:08:54;;;;;;;28.45;15.52;;;-3.50;94.90;;;;;;5047012;28;20075;-79
2023/02/20 08:11:21;;;;;;;30.02;15.90;;;-3.50;94.30;;;;;;5051280;28;20105;-79
2023/02/20 08:13:48;;;;;;;28.10;18.58;;;-3.60;94.70;;;;;;5047735;28;20037;-81
2023/02/20 08:16:14;;;;;;;25.70;16.67;;;-3.60;94.80;;;;;;5064009;28;20025;-80
2023/02/20 08:18:40;;;;;;;32.17;17.05;;;-3.60;94.70;;;;;;5049025;28;20021;-80
2023/02/20 08:21:06;;;;;;;30.23;18.05;;;-3.60;93.80;;;;;;5044558;28;20033;-80
2023/02/20 08:23:31;;;;;;;29.40;15.80;;;-3.70;93.70;;;;;;5060236;28;20024;-80
2023/02/20 08:25:59;;;;;;;29.90;16.30;;;-3.80;93.90;;;;;;5060040;28;20029;-82
2023/02/20 08:28:25;;;;;;;32.67;17.75;;;-3.70;94.20;;;;;;5033399;28;20033;-80
2023/02/20 08:30:51;;;;;;;20.88;12.93;;;-3.70;94.00;;;;;;5047844;28;20025;-80
2023/02/20 08:33:17;;;;;;;21.63;14.20;;;-3.70;93.70;;;;;;5056417;28;20401;-81
2023/02/20 08:35:43;;;;;;;23.17;14.40;;;-3.60;93.90;;;;;;5056599;28;20407;-80
2023/02/20 08:38:33;;;;;;;23.75;16.85;;;-3.50;94.00;;;;;;5049679;28;20028;-79
2023/02/20 08:41:01;;;;;;;26.70;15.00;;;-3.30;93.90;;;;;;5051160;28;20017;-79
2023/02/20 08:43:27;;;;;;;27.98;17.02;;;-3.30;93.80;;;;;;5027603;28;20478;-79
2023/02/20 08:45:53;;;;;;;29.17;16.88;;;-3.20;93.70;;;;;;5056534;28;20036;-80
2023/02/20 08:48:19;;;;;;;27.70;16.55;;;-3.00;93.60;;;;;;5037236;28;20047;-80
2023/02/20 08:50:46;;;;;;;29.33;17.42;;;-2.90;93.60;;;;;;5055891;28;20103;-80
2023/02/20 08:53:13;;;;;;;30.27;18.80;;;-2.80;92.70;;;;;;5052848;28;20052;-80
2023/02/20 08:55:40;;;;;;;25.80;17.70;;;-2.80;92.80;;;;;;5044151;28;20022;-80
2023/02/20 08:58:06;;;;;;;27.13;17.13;;;-2.70;92.40;;;;;;5053176;28;20502;-79
2023/02/20 09:00:32;;;;;;;30.33;18.27;;;-2.80;92.10;;;;;;5060278;28;20025;-79
2023/02/20 09:02:58;;;;;;;29.73;17.00;;;-2.80;93.00;;;;;;5038250;28;20021;-80
2023/02/20 09:05:25;;;;;;;36.03;18.70;;;-2.70;92.80;;;;;;5054682;28;20101;-80
2023/02/20 09:07:50;;;;;;;30.65;18.90;;;-2.80;92.20;;;;;;5053091;28;20032;-80
2023/02/20 09:10:20;;;;;;;32.60;18.92;;;-2.80;92.10;;;;;;5055614;28;20045;-79
2023/02/20 09:12:46;;;;;;;27.90;15.68;;;-2.80;92.40;;;;;;5056407;28;20052;-81
2023/02/20 09:15:16;;;;;;;28.98;17.15;;;-2.80;92.40;;;;;;5060620;28;20386;-81
2023/02/20 09:17:44;;;;;;;32.53;19.40;;;-2.80;92.40;;;;;;5041600;28;20398;-81
2023/02/20 09:20:10;;;;;;;30.30;18.52;;;-2.80;92.10;;;;;;5061175;28;20013;-81
2023/02/20 09:22:37;;;;;;;27.38;17.55;;;-2.70;93.30;;;;;;5041236;28;20123;-78
2023/02/20 09:25:04;;;;;;;31.52;18.02;;;-2.70;92.90;;;;;;5056324;28;20021;-82
2023/02/20 09:27:30;;;;;;;27.83;17.40;;;-2.70;92.90;;;;;;5063195;28;20025;-81
2023/02/20 09:29:56;;;;;;;26.73;16.70;;;-2.70;92.40;;;;;;5046528;28;20064;-82
2023/02/20 09:32:22;;;;;;;27.00;18.27;;;-2.70;91.90;;;;;;5060835;28;20024;-83
2023/02/20 09:34:48;;;;;;;29.17;17.00;;;-2.60;91.60;;;;;;5068415;28;20043;-82
2023/02/20 09:37:14;;;;;;;27.80;16.65;;;-2.60;91.10;;;;;;5026390;28;20034;-82
2023/02/20 09:39:40;;;;;;;31.65;18.85;;;-2.60;91.30;;;;;;5019450;28;20030;-85
2023/02/20 09:42:19;;;;;;;30.02;19.00;;;-2.60;91.20;;;;;;5003165;28;20165;-85
2023/02/20 09:45:16;;;;;;;30.63;18.85;;;-2.60;91.50;;;;;;5019546;28;20022;-83
2023/02/20 09:47:57;;;;;;;31.42;20.15;;;-2.70;91.60;;;;;;5019681;28;20042;-82
2023/02/20 09:50:39;;;;;;;28.00;16.90;;;-2.60;91.40;;;;;;5021015;28;20030;-83
2023/02/20 09:53:15;;;;;;;33.28;19.25;;;-2.70;91.10;;;;;;5019309;28;20438;-83
2023/02/20 09:55:42;;;;;;;35.58;19.55;;;-2.70;91.30;;;;;;5018934;28;20046;-82
2023/02/20 09:58:22;;;;;;;30.45;15.40;;;-2.70;91.30;;;;;;5001919;28;20045;-81
2023/02/20 10:00:48;;;;;;;32.45;16.00;;;-2.70;91.10;;;;;;5002688;28;20380;-83
2023/02/20 10:03:20;;;;;;;24.80;15.33;;;-2.80;91.10;;;;;;5002244;28;20034;-81
2023/02/20 10:05:46;;;;;;;27.80;16.65;;;-2.80;91.50;;;;;;4990680;28;20026;-81
2023/02/20 10:08:18;;;;;;;28.65;17.95;;;-2.80;91.50;;;;;;5016236;28;20066;-81
2023/02/20 10:10:47;;;;;;;28.05;16.13;;;-2.80;90.60;;;;;;5021753;28;20026;-84
2023/02/20 10:13:45;;;;;;;28.70;17.33;;;-2.80;90.90;;;;;;5003274;28;20132;-86
2023/02/20 10:16:41;;;;;;;34.17;17.80;;;-2.80;91.10;;;;;;5066981;28;20076;-84
2023/02/20 10:19:19;;;;;;;30.23;17.05;;;-2.80;90.90;;;;;;5053065;28;20085;-84
2023/02/20 10:21:59;;;;;;;30.77;18.13;;;-2.70;90.60;;;;;;5055646;28;20025;-83
2023/02/20 10:24:56;;;;;;;30.02;17.00;;;-2.70;91.30;;;;;;5075420;28;20088;-83
2023/02/20 10:28:02;;;;;;;37.22;19.67;;;-2.80;90.80;;;;;;5060297;28;20076;-81
2023/02/20 10:30:37;;;;;;;30.38;16.73;;;-2.90;91.30;;;;;;5041783;28;20037;-81
2023/02/20 10:33:09;;;;;;;37.53;20.02;;;-2.90;91.40;;;;;;5048069;28;20061;-81
2023/02/20 10:35:43;;;;;;;34.95;22.10;;;-2.90;91.40;;;;;;5046224;28;20109;-82
2023/02/20 10:38:12;;;;;;;37.55;20.92;;;-2.90;91.20;;;;;;5060695;28;20108;-84
2023/02/20 10:40:46;;;;;;;38.67;21.13;;;-2.90;91.30;;;;;;5061514;28;20044;-83
2023/02/20 10:43:22;;;;;;;30.52;19.58;;;-2.90;90.80;;;;;;5059209;28;20049;-83
2023/02/20 10:46:03;;;;;;;32.53;18.15;;;-2.90;91.10;;;;;;5065092;28;20025;-83
2023/02/20 10:48:32;;;;;;;36.30;20.75;;;-2.80;91.30;;;;;;5065574;28;20037;-82
2023/02/20 10:51:14;;;;;;;33.00;19.75;;;-2.80;91.90;;;;;;5067376;28;20162;-83
2023/02/20 10:53:59;;;;;;;37.78;20.25;;;-2.80;91.50;;;;;;5058147;28;20025;-83
2023/02/20 10:56:34;;;;;;;35.97;22.30;;;-2.80;91.20;;;;;;5052181;28;20025;-84
2023/02/20 10:59:40;;;;;;;36.10;21.08;;;-2.80;91.20;;;;;;5038889;28;20028;-82
2023/02/20 11:02:15;;;;;;;38.58;20.58;;;-2.90;91.10;;;;;;5038242;28;20035;-82
2023/02/20 11:04:49;;;;;;;37.47;22.58;;;-2.90;91.30;;;;;;5047924;28;20070;-83
2023/02/20 11:07:22;;;;;;;35.38;20.33;;;-2.90;90.90;;;;;;5074477;28;20085;-83
2023/02/20 11:09:48;;;;;;;40.97;20.48;;;-3.00;90.20;;;;;;5039941;28;20039;-83
2023/02/20 11:12:28;;;;;;;33.55;18.10;;;-3.00;90.70;;;;;;5064123;28;20390;-84
2023/02/20 11:15:03;;;;;;;32.38;21.95;;;-3.10;90.80;;;;;;5036677;28;20032;-84
2023/02/20 11:17:31;;;;;;;36.25;19.35;;;-3.10;90.90;;;;;;5055788;28;20036;-82
2023/02/20 11:19:59;;;;;;;;;;;-3.10;91.40;;;;;;5037175;28;20025;-83
2023/02/20 11:22:47;;;;;;;32.80;17.35;;;-3.10;91.40;;;;;;5051370;28;19939;-84
2023/02/20 11:25:15;;;;;;;36.45;20.67;;;-3.10;91.50;;;;;;5020378;28;20067;-83
2023/02/20 11:27:44;;;;;;;34.67;20.80;;;-3.20;91.40;;;;;;5048760;28;20589;-86
2023/02/20 11:30:19;;;;;;;28.80;18.35;;;-3.30;91.20;;;;;;5030805;28;20029;-84
2023/02/20 11:32:47;;;;;;;39.55;27.27;;;-3.40;91.30;;;;;;5050949;28;20055;-84
2023/02/20 11:35:28;;;;;;;43.25;23.80;;;-3.50;91.60;;;;;;5056423;28;20025;-88
2023/02/20 11:38:24;;;;;;;30.60;18.23;;;-3.50;91.70;;;;;;5034296;28;20050;-88
2023/02/20 11:41:02;;;;;;;35.60;20.63;;;-3.60;92.10;;;;;;5031527;28;20382;-84
2023/02/20 11:43:37;;;;;;;31.70;19.73;;;-3.70;92.10;;;;;;5049430;28;20052;-90
2023/02/20 11:46:20;;;;;;;33.78;18.65;;;-3.70;91.60;;;;;;5019521;28;20025;-87
2023/02/20 11:49:06;;;;;;;25.70;17.40;;;-3.70;91.60;;;;;;5070411;28;20025;-88
2023/02/20 11:51:36;;;;;;;31.58;18.58;;;-3.70;92.10;;;;;;5067909;28;20033;-87
2023/02/20 11:54:28;;;;;;;28.08;17.00;;;-3.70;92.20;;;;;;5041946;28;20060;-86
2023/02/20 11:57:24;;;;;;;27.80;17.80;;;-3.60;92.00;;;;;;5020536;28;20091;-82
2023/02/20 12:00:07;;;;;;;33.00;19.23;;;-3.60;92.00;;;;;;5055308;28;20045;-86
2023/02/20 12:02:33;;;;;;;33.97;18.55;;;-3.60;91.60;;;;;;5046942;28;20020;-84
2023/02/20 12:05:11;;;;;;;29.30;18.13;;;-3.60;91.40;;;;;;5060040;28;20017;-82
2023/02/20 12:07:54;;;;;;;25.27;15.77;;;-3.60;90.80;;;;;;5055448;28;20025;-83
2023/02/20 12:10:38;;;;;;;26.58;16.30;;;-3.60;91.10;;;;;;5033103;28;20036;-83
2023/02/20 12:13:09;;;;;;;28.63;16.38;;;-3.60;92.20;;;;;;5041762;28;20059;-85
2023/02/20 12:15:36;;;;;;;32.90;16.70;;;-3.60;92.00;;;;;;5053797;28;20052;-83
2023/02/20 12:18:27;;;;;;;30.43;16.37;;;-3.50;91.60;;;;;;5057542;28;20072;-83
2023/02/20 12:21:18;;;;;;;27.63;14.77;;;-3.50;91.10;;;;;;5009278;28;20262;-84
2023/02/20 12:24:10;;;;;;;23.55;14.40;;;-3.60;91.10;;;;;;5055872;28;20067;-85
2023/02/20 12:26:58;;;;;;;26.40;14.73;;;-3.60;91.90;;;;;;5062492;28;20021;-85
2023/02/20 12:29:29;;;;;;;26.60;16.02;;;-3.70;91.50;;;;;;5036385;28;20033;-82
2023/02/20 12:32:15;;;;;;;30.52;17.63;;;-3.60;91.50;;;;;;5047160;28;20048;-83
2023/02/20 12:34:43;;;;;;;31.23;16.58;;;-3.60;91.20;;;;;;5058858;28;20025;-85
2023/02/20 12:37:43;;;;;;;33.45;17.35;;;-3.60;91.20;;;;;;5065799;28;20048;-85
2023/02/20 12:40:28;;;;;;;33.22;19.63;;;-3.50;90.80;;;;;;5053324;28;20032;-86
2023/02/20 12:43:17;;;;;;;29.52;16.48;;;-3.60;90.50;;;;;;5062060;28;20025;-87
2023/02/20 12:46:02;;;;;;;29.23;17.55;;;-3.60;90.90;;;;;;5061033;28;20051;-88
2023/02/20 12:49:02;;;;;;;28.92;17.17;;;-3.60;90.50;;;;;;5060013;28;20041;-83
2023/02/20 12:52:01;;;;;;;29.63;15.27;;;-3.70;90.40;;;;;;5040452;28;20060;-81
2023/02/20 12:54:49;;;;;;;26.27;13.93;;;-3.70;90.60;;;;;;5073427;28;20025;-81
2023/02/20 12:57:30;;;;;;;27.33;15.73;;;-3.70;90.50;;;;;;5045995;28;20059;-84
2023/02/20 13:00:14;;;;;;;31.23;16.90;;;-3.70;90.70;;;;;;5038514;28;20035;-82
2023/02/20 13:02:45;;;;;;;31.08;16.85;;;-3.70;90.30;;;;;;5076409;28;20001;-83